createdAt,value
2023-05-04T00:01:35.732Z,66.90
2023-05-04T00:04:37.655Z,85.10
2023-05-04T00:07:39.520Z,75.10
2023-05-04T00:10:41.272Z,73.90
2023-05-04T00:13:43.082Z,76.10
2023-05-04T00:16:44.881Z,74.80
2023-05-04T00:19:46.553Z,78.30
2023-05-04T00:22:48.282Z,110.20
2023-05-04T00:25:49.896Z,74.30
2023-05-04T00:28:51.647Z,73.80
2023-05-04T00:31:53.312Z,72.60
2023-05-04T00:34:55.211Z,87.90
2023-05-04T00:37:57.145Z,95.40
2023-05-04T00:40:58.928Z,83.10
2023-05-04T00:44:00.763Z,75.60
2023-05-04T00:47:02.864Z,101.00
2023-05-04T00:50:05.445Z,110.20
2023-05-04T00:53:11.178Z,112.20
2023-05-04T00:56:13.926Z,70.60
2023-05-04T00:59:15.646Z,86.40
2023-05-04T01:02:17.343Z,63.00
2023-05-04T01:05:19.072Z,60.50
2023-05-04T01:08:24.086Z,94.20
2023-05-04T01:11:44.457Z,77.40
2023-05-04T01:14:47.126Z,89.20
2023-05-04T01:17:49.049Z,78.70
2023-05-04T01:20:50.759Z,62.50
2023-05-04T01:23:52.556Z,62.60
2023-05-04T01:27:04.600Z,63.50
2023-05-04T01:30:13.132Z,82.60
2023-05-04T01:33:15.697Z,49.20
2023-05-04T01:36:19.467Z,128.00
2023-05-04T01:39:21.278Z,68.60
2023-05-04T01:42:22.944Z,56.30
2023-05-04T01:45:24.647Z,52.90
2023-05-04T01:48:28.221Z,54.50
2023-05-04T01:51:30.086Z,47.10
2023-05-04T01:54:31.759Z,70.60
2023-05-04T01:57:33.968Z,44.90
2023-05-04T02:00:35.829Z,48.40
2023-05-04T02:03:37.620Z,59.60
2023-05-04T02:06:39.503Z,67.40
2023-05-04T02:09:41.293Z,59.00
2023-05-04T02:12:43.192Z,54.40
2023-05-04T02:15:45.016Z,60.30
2023-05-04T02:18:47.059Z,68.00
2023-05-04T02:21:49.203Z,63.70
2023-05-04T02:24:50.885Z,63.60
2023-05-04T02:27:52.540Z,95.90
2023-05-04T02:30:54.227Z,85.00
2023-05-04T02:33:56.112Z,114.00
2023-05-04T02:36:58.010Z,103.90
2023-05-04T02:39:59.617Z,91.30
2023-05-04T02:43:01.398Z,85.40
2023-05-04T02:46:03.627Z,93.60
2023-05-04T02:49:05.623Z,123.50
2023-05-04T02:52:07.458Z,196.60
2023-05-04T02:55:10.029Z,156.40
2023-05-04T02:58:11.620Z,109.20
2023-05-04T03:01:13.472Z,70.70
2023-05-04T03:04:15.212Z,49.20
2023-05-04T03:07:17.220Z,46.10
2023-05-04T03:10:19.606Z,46.40
2023-05-04T03:13:21.374Z,48.50
2023-05-04T03:16:23.224Z,45.10
2023-05-04T03:19:25.238Z,44.10
2023-05-04T03:22:27.281Z,39.50
2023-05-04T03:25:29.042Z,41.20
2023-05-04T03:28:30.728Z,42.70
2023-05-04T03:31:32.764Z,42.40
2023-05-04T03:34:34.553Z,38.50
2023-05-04T03:37:36.311Z,39.50
2023-05-04T03:40:38.288Z,40.30
2023-05-04T03:43:40.396Z,41.60
2023-05-04T03:46:42.147Z,39.20
2023-05-04T03:49:44.224Z,40.30
2023-05-04T03:52:46.172Z,37.10
2023-05-04T03:55:48.091Z,42.50
2023-05-04T03:58:50.041Z,37.90
2023-05-04T04:01:51.946Z,41.40
2023-05-04T04:04:53.741Z,36.10
2023-05-04T04:07:55.425Z,36.10
2023-05-04T04:10:58.372Z,40.00
2023-05-04T04:14:00.285Z,36.90
2023-05-04T04:17:02.060Z,36.10
2023-05-04T04:20:04.401Z,40.40
2023-05-04T04:23:06.705Z,36.10
2023-05-04T04:26:08.874Z,39.60
2023-05-04T04:29:10.727Z,36.90
2023-05-04T04:32:12.736Z,38.80
2023-05-04T04:35:14.983Z,33.40
2023-05-04T04:38:16.792Z,35.20
2023-05-04T04:41:18.424Z,31.10
2023-05-04T04:44:20.272Z,32.10
2023-05-04T04:47:22.073Z,30.40
2023-05-04T04:50:23.810Z,28.80
2023-05-04T04:53:26.343Z,29.70
2023-05-04T04:56:28.421Z,30.20
2023-05-04T04:59:30.038Z,24.60
2023-05-04T05:02:31.938Z,28.90
2023-05-04T05:05:34.112Z,28.30
2023-05-04T05:08:35.960Z,26.30
2023-05-04T05:11:37.902Z,25.30
2023-05-04T05:14:43.473Z,28.00
2023-05-04T05:17:45.475Z,26.40
2023-05-04T05:20:47.540Z,27.60
2023-05-04T05:23:49.447Z,28.90
2023-05-04T05:26:51.367Z,25.90
2023-05-04T05:29:53.002Z,29.10
2023-05-04T05:32:54.889Z,25.10
2023-05-04T05:35:57.166Z,25.40
2023-05-04T05:38:59.115Z,26.70
2023-05-04T05:42:00.745Z,26.70
2023-05-04T05:45:02.755Z,26.70
2023-05-04T05:48:04.709Z,27.40
2023-05-04T05:51:06.655Z,26.00
2023-05-04T05:54:09.211Z,24.30
2023-05-04T05:57:11.736Z,27.30
2023-05-04T06:00:13.901Z,25.00
2023-05-04T06:03:15.855Z,26.60
2023-05-04T06:06:17.911Z,24.20
2023-05-04T06:09:19.965Z,25.00
2023-05-04T06:12:21.682Z,26.20
2023-05-04T06:15:23.475Z,24.70
2023-05-04T06:18:25.318Z,25.50
2023-05-04T06:21:27.356Z,24.50
2023-05-04T06:24:30.553Z,26.50
2023-05-04T06:27:33.406Z,24.50
2023-05-04T06:30:35.743Z,24.70
2023-05-04T06:33:37.720Z,24.40
2023-05-04T06:36:39.409Z,26.90
2023-05-04T06:39:41.617Z,22.80
2023-05-04T06:42:43.434Z,23.60
2023-05-04T06:45:45.218Z,25.20
2023-05-04T06:48:47.070Z,24.30
2023-05-04T06:51:48.699Z,23.30
2023-05-04T06:54:50.553Z,24.50
2023-05-04T06:57:52.484Z,23.20
2023-05-04T07:00:54.886Z,24.80
2023-05-04T07:03:57.047Z,22.90
2023-05-04T07:06:59.533Z,26.00
2023-05-04T07:10:01.349Z,22.90
2023-05-04T07:13:03.260Z,23.50
2023-05-04T07:16:07.535Z,24.00
2023-05-04T07:19:09.353Z,26.90
2023-05-04T07:22:10.946Z,22.80
2023-05-04T07:25:12.861Z,23.40
2023-05-04T07:28:14.621Z,23.50
2023-05-04T07:31:16.375Z,23.90
2023-05-04T07:34:19.183Z,23.00
2023-05-04T07:37:21.018Z,21.50
2023-05-04T07:40:22.744Z,21.00
2023-05-04T07:43:24.420Z,22.10
2023-05-04T07:46:26.149Z,23.10
2023-05-04T07:49:27.937Z,20.10
2023-05-04T07:52:29.777Z,19.90
2023-05-04T07:55:31.627Z,19.50
2023-05-04T07:58:33.336Z,22.30
2023-05-04T08:01:35.135Z,22.10
2023-05-04T08:04:36.976Z,20.30
2023-05-04T08:07:38.994Z,21.00
2023-05-04T08:10:40.767Z,21.10
2023-05-04T08:13:42.502Z,22.40
2023-05-04T08:16:44.655Z,19.80
2023-05-04T08:19:46.596Z,24.40
2023-05-04T08:22:48.428Z,21.70
2023-05-04T08:25:50.244Z,21.20
2023-05-04T08:28:52.132Z,23.00
2023-05-04T08:31:56.285Z,21.20
2023-05-04T08:34:58.559Z,20.60
2023-05-04T08:38:01.017Z,20.30
2023-05-04T08:41:06.380Z,21.60
2023-05-04T08:44:10.790Z,22.50
2023-05-04T08:47:12.453Z,23.70
2023-05-04T08:50:14.413Z,24.30
2023-05-04T08:53:19.879Z,22.70
2023-05-04T08:56:22.951Z,20.70
2023-05-04T08:59:25.415Z,21.50
2023-05-04T09:02:27.952Z,22.20
2023-05-04T09:05:29.665Z,20.60
2023-05-04T09:08:31.398Z,19.40
2023-05-04T09:11:33.091Z,21.90
2023-05-04T09:14:37.973Z,19.50
2023-05-04T09:17:50.893Z,18.20
2023-05-04T09:20:58.553Z,17.60
2023-05-04T09:24:00.424Z,16.20
2023-05-04T09:27:10.286Z,19.50
2023-05-04T09:30:12.749Z,15.20
2023-05-04T09:33:17.332Z,17.60
2023-05-04T09:36:19.821Z,16.30
2023-05-04T09:39:21.873Z,15.90
2023-05-04T09:42:25.115Z,17.80
2023-05-04T09:45:37.969Z,15.80
2023-05-04T09:48:50.696Z,16.90
2023-05-04T09:51:52.528Z,14.10
2023-05-04T09:54:54.730Z,15.90
2023-05-04T09:57:56.632Z,15.80
2023-05-04T10:01:01.104Z,12.60
2023-05-04T10:04:02.915Z,10.80
2023-05-04T10:07:05.350Z,19.00
2023-05-04T10:10:08.265Z,13.50
2023-05-04T10:13:10.239Z,13.10
2023-05-04T10:16:27.832Z,15.80
2023-05-04T10:19:49.224Z,16.20
2023-05-04T10:23:28.282Z,24.00
2023-05-04T10:26:32.744Z,17.60
2023-05-04T10:29:35.144Z,17.10
2023-05-04T10:32:36.902Z,14.10
2023-05-04T10:35:50.713Z,14.80
2023-05-04T10:38:52.710Z,15.50
2023-05-04T10:42:04.223Z,14.90
2023-05-04T10:45:06.709Z,14.10
2023-05-04T10:48:09.514Z,13.90
2023-05-04T10:51:18.706Z,14.90
2023-05-04T10:54:20.607Z,16.20
2023-05-04T10:57:22.218Z,15.50
2023-05-04T11:00:36.552Z,16.50
2023-05-04T11:03:39.770Z,13.20
2023-05-04T11:06:41.576Z,10.80
2023-05-04T11:09:43.374Z,12.20
2023-05-04T11:12:45.111Z,11.10
2023-05-04T11:15:50.475Z,14.80
2023-05-04T11:18:53.058Z,11.40
2023-05-04T11:21:54.656Z,13.00
2023-05-04T11:24:56.476Z,14.60
2023-05-04T11:27:58.231Z,11.20
2023-05-04T11:31:00.173Z,16.10
2023-05-04T11:34:03.767Z,15.50
2023-05-04T11:37:05.478Z,12.40
2023-05-04T11:40:11.639Z,13.20
2023-05-04T11:43:14.165Z,13.30
2023-05-04T11:46:16.884Z,9.50
2023-05-04T11:49:18.951Z,11.00
2023-05-04T11:52:23.128Z,15.60
2023-05-04T11:55:26.532Z,10.80
2023-05-04T11:58:28.277Z,8.60
2023-05-04T12:01:35.051Z,10.70
2023-05-04T12:04:36.734Z,13.20
2023-05-04T12:07:38.468Z,11.30
2023-05-04T12:10:40.132Z,10.80
2023-05-04T12:13:43.607Z,8.40
2023-05-04T12:16:54.220Z,14.30
2023-05-04T12:19:57.234Z,11.70
2023-05-04T12:23:05.918Z,9.10
2023-05-04T12:26:09.023Z,11.10
2023-05-04T12:29:10.845Z,12.60
2023-05-04T12:32:12.943Z,9.70
2023-05-04T12:35:14.672Z,10.70
2023-05-04T12:38:16.319Z,10.20
2023-05-04T12:41:18.040Z,10.50
2023-05-04T12:44:19.759Z,9.80
2023-05-04T12:47:21.995Z,11.10
2023-05-04T12:50:23.654Z,12.90
2023-05-04T12:53:27.109Z,9.20
2023-05-04T12:56:29.146Z,9.70
2023-05-04T12:59:30.972Z,11.00
2023-05-04T13:02:32.938Z,13.40
2023-05-04T13:05:34.862Z,12.00
2023-05-04T13:08:37.028Z,12.30
2023-05-04T13:11:39.010Z,8.60
2023-05-04T13:14:40.645Z,13.10
2023-05-04T13:17:42.508Z,11.20
2023-05-04T13:20:44.275Z,11.20
2023-05-04T13:23:46.148Z,9.10
2023-05-04T13:26:47.861Z,12.10
2023-05-04T13:29:49.732Z,12.40
2023-05-04T13:32:51.629Z,8.50
2023-05-04T13:35:53.362Z,8.60
2023-05-04T13:38:55.140Z,8.50
2023-05-04T13:41:57.785Z,10.20
2023-05-04T13:45:00.066Z,9.70
2023-05-04T13:48:01.923Z,11.00
2023-05-04T13:51:03.939Z,12.10
2023-05-04T13:54:06.017Z,8.50
2023-05-04T13:57:07.718Z,12.20
2023-05-04T14:00:10.135Z,8.20
2023-05-04T14:03:11.815Z,8.60
2023-05-04T14:06:13.433Z,10.40
2023-05-04T14:09:15.161Z,11.60
2023-05-04T14:12:16.965Z,7.10
2023-05-04T14:15:18.832Z,7.30
2023-05-04T14:18:20.573Z,8.90
2023-05-04T14:21:22.340Z,7.50
2023-05-04T14:24:24.688Z,8.80
2023-05-04T14:27:26.630Z,7.20
2023-05-04T14:30:28.411Z,8.10
2023-05-04T14:33:30.372Z,7.60
2023-05-04T14:36:32.216Z,7.30
2023-05-04T14:39:34.110Z,3.90
2023-05-04T14:42:36.130Z,6.60
2023-05-04T14:45:37.962Z,8.40
2023-05-04T14:48:40.147Z,8.60
2023-05-04T14:51:41.838Z,6.10
2023-05-04T14:54:43.467Z,6.80
2023-05-04T14:57:45.593Z,10.10
2023-05-04T15:00:47.776Z,8.70
2023-05-04T15:03:49.594Z,9.20
2023-05-04T15:06:51.311Z,7.80
2023-05-04T15:09:53.046Z,11.90
2023-05-04T15:12:55.210Z,7.90
2023-05-04T15:15:58.161Z,7.20
2023-05-04T15:19:00.212Z,5.00
2023-05-04T15:22:02.126Z,9.40
2023-05-04T15:25:04.186Z,10.00
2023-05-04T15:28:09.353Z,9.30
2023-05-04T15:31:11.262Z,9.90
2023-05-04T15:34:13.032Z,8.60
2023-05-04T15:37:14.854Z,8.70
2023-05-04T15:40:16.698Z,10.50
2023-05-04T15:43:18.468Z,6.30
2023-05-04T15:46:20.422Z,10.70
2023-05-04T15:49:22.074Z,9.00
2023-05-04T15:52:24.345Z,8.70
2023-05-04T15:55:26.679Z,7.40
2023-05-04T15:58:28.438Z,17.30
2023-05-04T16:01:30.095Z,10.20
2023-05-04T16:04:31.746Z,11.60
2023-05-04T16:07:34.214Z,7.90
2023-05-04T16:10:36.006Z,9.90
2023-05-04T16:13:38.227Z,10.60
2023-05-04T16:16:39.875Z,8.10
2023-05-04T16:19:42.005Z,12.70
2023-05-04T16:22:43.832Z,19.60
2023-05-04T16:25:45.656Z,9.00
2023-05-04T16:28:47.296Z,8.80
2023-05-04T16:31:48.953Z,10.30
2023-05-04T16:34:51.019Z,15.00
2023-05-04T16:37:53.173Z,8.30
2023-05-04T16:40:55.345Z,13.50
2023-05-04T16:43:57.462Z,7.30
2023-05-04T16:46:59.917Z,9.30
2023-05-04T16:50:01.964Z,12.60
2023-05-04T16:53:03.914Z,10.00
2023-05-04T16:56:06.693Z,7.20
2023-05-04T16:59:08.453Z,5.50
2023-05-04T17:02:10.925Z,7.40
2023-05-04T17:05:12.828Z,7.20
2023-05-04T17:08:14.865Z,9.40
2023-05-04T17:11:16.474Z,9.30
2023-05-04T17:14:18.156Z,6.40
2023-05-04T17:17:20.029Z,9.40
2023-05-04T17:20:22.049Z,9.10
2023-05-04T17:23:23.863Z,8.20
2023-05-04T17:26:26.079Z,8.10
2023-05-04T17:29:28.571Z,7.60
2023-05-04T17:32:30.665Z,8.20
2023-05-04T17:35:32.584Z,9.90
2023-05-04T17:38:34.288Z,7.50
2023-05-04T17:41:35.915Z,7.50
2023-05-04T17:44:37.631Z,10.40
2023-05-04T17:47:39.409Z,9.70
2023-05-04T17:50:41.141Z,13.30
2023-05-04T17:53:43.083Z,9.30
2023-05-04T17:56:44.749Z,12.50
2023-05-04T17:59:46.422Z,24.10
2023-05-04T18:02:48.270Z,32.60
2023-05-04T18:05:52.505Z,28.60
2023-05-04T18:08:54.340Z,27.30
2023-05-04T18:11:56.028Z,19.30
2023-05-04T18:14:57.729Z,14.40
2023-05-04T18:17:59.934Z,17.20
2023-05-04T18:21:01.700Z,17.90
2023-05-04T18:24:07.022Z,13.60
2023-05-04T18:27:08.671Z,20.10
2023-05-04T18:30:10.826Z,24.40
2023-05-04T18:33:12.519Z,19.00
2023-05-04T18:36:14.306Z,25.40
2023-05-04T18:39:15.946Z,21.20
2023-05-04T18:42:17.694Z,30.90
2023-05-04T18:45:19.400Z,30.30
2023-05-04T18:48:21.222Z,27.50
2023-05-04T18:51:22.858Z,24.80
2023-05-04T18:54:24.512Z,20.10
2023-05-04T18:57:27.267Z,18.10
2023-05-04T19:00:30.599Z,23.20
2023-05-04T19:03:32.551Z,22.80
2023-05-04T19:06:34.499Z,24.50
2023-05-04T19:09:36.622Z,24.30
2023-05-04T19:12:38.270Z,24.20
2023-05-04T19:15:39.970Z,16.40
2023-05-04T19:18:42.093Z,19.60
2023-05-04T19:21:43.716Z,17.80
2023-05-04T19:24:49.566Z,17.90
2023-05-04T19:27:51.507Z,18.30
2023-05-04T19:30:53.535Z,19.60
2023-05-04T19:33:55.883Z,19.20
2023-05-04T19:36:58.001Z,22.00
2023-05-04T19:40:23.015Z,21.80
2023-05-04T19:43:25.033Z,20.10
2023-05-04T19:46:26.839Z,21.20
2023-05-04T19:49:28.826Z,24.50
2023-05-04T19:52:30.937Z,25.40
2023-05-04T19:55:33.277Z,33.90
2023-05-04T19:58:35.494Z,31.40
2023-05-04T20:01:38.649Z,30.70
2023-05-04T20:04:40.498Z,29.10
2023-05-04T20:07:42.671Z,27.50
2023-05-04T20:10:44.871Z,43.70
2023-05-04T20:13:49.070Z,34.10
2023-05-04T20:16:50.891Z,30.30
2023-05-04T20:19:52.863Z,37.80
2023-05-04T20:22:54.572Z,31.20
2023-05-04T20:25:56.456Z,28.20
2023-05-04T20:28:58.676Z,26.70
2023-05-04T20:32:01.254Z,30.70
2023-05-04T20:35:03.223Z,29.00
2023-05-04T20:38:05.078Z,30.90
2023-05-04T20:41:07.824Z,27.80
2023-05-04T20:44:09.603Z,29.10
2023-05-04T20:47:11.441Z,31.10
2023-05-04T20:50:13.185Z,30.00
2023-05-04T20:53:14.980Z,31.80
2023-05-04T20:56:16.721Z,27.40
2023-05-04T20:59:18.678Z,30.60
2023-05-04T21:02:20.800Z,33.30
2023-05-04T21:05:22.725Z,24.60
2023-05-04T21:08:25.247Z,26.60
2023-05-04T21:11:27.129Z,21.90
2023-05-04T21:14:29.269Z,17.70
2023-05-04T21:17:31.621Z,13.60
2023-05-04T21:20:36.672Z,13.60
2023-05-04T21:23:38.469Z,14.80
2023-05-04T21:26:41.080Z,20.50
2023-05-04T21:29:42.917Z,20.40
2023-05-04T21:32:44.703Z,21.80
2023-05-04T21:35:46.452Z,19.40
2023-05-04T21:38:48.200Z,17.80
2023-05-04T21:41:50.185Z,18.30
2023-05-04T21:44:55.789Z,18.00
2023-05-04T21:47:58.334Z,18.70
2023-05-04T21:51:00.216Z,18.90
2023-05-04T21:54:02.621Z,23.20
2023-05-04T21:57:04.431Z,24.10
2023-05-04T22:00:06.962Z,20.90
2023-05-04T22:03:09.118Z,21.10
2023-05-04T22:06:11.029Z,18.20
2023-05-04T22:09:13.342Z,20.10
2023-05-04T22:12:15.418Z,19.20
2023-05-04T22:15:17.271Z,21.60
2023-05-04T22:18:19.607Z,20.60
2023-05-04T22:21:24.612Z,22.00
2023-05-04T22:24:26.923Z,24.90
2023-05-04T22:27:29.050Z,21.40
2023-05-04T22:30:31.347Z,18.40
2023-05-04T22:33:33.091Z,19.80
2023-05-04T22:36:34.825Z,18.80
2023-05-04T22:39:37.181Z,19.20
2023-05-04T22:42:38.885Z,21.60
2023-05-04T22:45:40.766Z,22.80
2023-05-04T22:48:45.911Z,22.50
2023-05-04T22:51:47.613Z,20.70
2023-05-04T22:54:50.086Z,18.90
2023-05-04T22:57:51.922Z,21.30
2023-05-04T23:09:58.888Z,17.70
2023-05-04T23:13:01.028Z,18.10
2023-05-04T23:16:03.211Z,16.70
2023-05-04T23:19:05.502Z,17.50
2023-05-04T23:22:08.399Z,17.30
2023-05-04T23:25:10.167Z,15.00
2023-05-04T23:28:12.045Z,19.30
2023-05-04T23:31:13.862Z,19.40
2023-05-04T23:34:15.806Z,20.60
2023-05-04T23:37:17.604Z,25.20
2023-05-04T23:40:19.993Z,21.80
2023-05-04T23:43:22.031Z,23.80
2023-05-04T23:46:23.891Z,21.70
2023-05-04T23:49:25.800Z,20.50
2023-05-04T23:52:27.503Z,20.00
2023-05-04T23:55:29.808Z,17.50
2023-05-04T23:58:32.888Z,22.50
